Time;durP1;ratioP1;P1;durP2;ratioP2;P2;SDS_P1;SDS_P2;PMS_P1;PMS_P2;Temp;Humidity;BMP_temperature;BMP_pressure;BME280_temperature;BME280_humidity;BME280_pressure;Samples;Min_cycle;Max_cycle;Signal;HPM_P1;HPM_P2
2021/09/06 00:01:56;;;;;;;7.53;4.55;;;;;;;;;;4953158;28;20059;-89
2021/09/06 00:04:29;;;;;;;8.63;3.75;;;;;;;;;;4936230;29;20421;-90
2021/09/06 00:06:54;;;;;;;7.93;3.88;;;;;;;;;;4973744;28;20110;-88
2021/09/06 00:09:20;;;;;;;10.45;3.85;;;;;;;;;;4993215;28;20098;-86
2021/09/06 00:11:49;;;;;;;4.70;2.40;;;;;;;;;;4986545;28;20054;-88
2021/09/06 00:14:14;;;;;;;5.70;3.00;;;;;;;;;;4955608;28;20069;-90
2021/09/06 00:16:41;;;;;;;4.38;2.72;;;;;;;;;;4964709;28;20087;-89
2021/09/06 00:19:15;;;;;;;8.13;3.55;;;;;;;;;;4953612;28;20035;-88
2021/09/06 00:21:44;;;;;;;9.18;4.13;;;;;;;;;;4981238;28;20031;-87
2021/09/06 00:24:17;;;;;;;7.47;3.90;;;;;;;;;;4951746;28;20038;-89
2021/09/06 00:26:42;;;;;;;4.57;3.03;;;;;;;;;;4951734;28;20516;-87
2021/09/06 00:29:08;;;;;;;5.95;2.38;;;;;;;;;;4934269;29;20150;-88
2021/09/06 00:31:37;;;;;;;2.22;1.85;;;;;;;;;;4962683;28;20119;-88
2021/09/06 00:34:04;;;;;;;4.40;2.15;;;;;;;;;;4980552;28;20038;-89
2021/09/06 00:36:41;;;;;;;2.70;2.00;;;;;;;;;;4951852;29;20038;-87
2021/09/06 00:39:07;;;;;;;2.90;1.75;;;;;;;;;;4950106;29;20747;-88
2021/09/06 00:41:32;;;;;;;4.85;2.40;;;;;;;;;;4935172;29;20035;-91
2021/09/06 00:44:07;;;;;;;3.95;2.55;;;;;;;;;;4950450;29;20039;-88
2021/09/06 00:46:33;;;;;;;3.90;2.55;;;;;;;;;;4948814;28;20023;-89
2021/09/06 00:49:06;;;;;;;10.13;3.63;;;;;;;;;;4917710;29;20049;-89
2021/09/06 00:51:31;;;;;;;7.40;2.20;;;;;;;;;;4980241;28;20019;-89
2021/09/06 00:53:57;;;;;;;3.72;2.58;;;;;;;;;;4969264;28;20705;-89
2021/09/06 00:56:30;;;;;;;4.07;2.67;;;;;;;;;;4953127;29;20118;-89
2021/09/06 00:58:56;;;;;;;6.22;3.67;;;;;;;;;;4970045;28;20066;-90
2021/09/06 01:01:21;;;;;;;7.03;4.05;;;;;;;;;;4967706;28;20023;-88
2021/09/06 01:03:49;;;;;;;9.40;3.63;;;;;;;;;;4964298;28;20030;-88
2021/09/06 01:06:15;;;;;;;7.72;3.65;;;;;;;;;;4982035;28;20063;-88
2021/09/06 01:08:40;;;;;;;6.43;3.70;;;;;;;;;;4979676;28;20046;-91
2021/09/06 01:11:06;;;;;;;7.90;3.78;;;;;;;;;;4966920;28;20050;-90
2021/09/06 01:13:34;;;;;;;9.07;3.35;;;;;;;;;;4956698;28;20033;-86
2021/09/06 01:16:00;;;;;;;6.25;3.90;;;;;;;;;;4973567;28;20111;-88
2021/09/06 01:18:26;;;;;;;5.53;3.17;;;;;;;;;;4956786;29;20115;-91
2021/09/06 01:20:59;;;;;;;5.28;3.28;;;;;;;;;;4973936;28;20095;-88
2021/09/06 01:23:24;;;;;;;5.85;3.40;;;;;;;;;;4960052;29;20106;-88
2021/09/06 01:25:50;;;;;;;4.95;2.67;;;;;;;;;;4943009;29;20051;-89
2021/09/06 01:28:19;;;;;;;7.97;3.92;;;;;;;;;;4966852;28;20027;-89
2021/09/06 01:30:45;;;;;;;9.35;3.47;;;;;;;;;;4953267;28;20027;-87
2021/09/06 01:33:10;;;;;;;6.85;4.00;;;;;;;;;;4976536;28;20031;-89
2021/09/06 01:35:35;;;;;;;8.93;4.20;;;;;;;;;;4938790;29;20032;-88
2021/09/06 01:38:04;;;;;;;6.22;3.90;;;;;;;;;;4988594;28;20024;-88
2021/09/06 01:40:30;;;;;;;5.97;3.90;;;;;;;;;;4959002;29;20041;-90
2021/09/06 01:42:55;;;;;;;6.63;3.55;;;;;;;;;;4974815;28;20573;-86
2021/09/06 01:45:30;;;;;;;3.97;3.08;;;;;;;;;;4956787;28;20059;-90
2021/09/06 01:47:56;;;;;;;4.53;3.05;;;;;;;;;;4989222;28;20112;-85
2021/09/06 01:50:21;;;;;;;4.57;2.97;;;;;;;;;;4970853;28;20434;-89
2021/09/06 01:52:49;;;;;;;6.28;4.03;;;;;;;;;;4971056;28;20023;-88
2021/09/06 01:55:15;;;;;;;4.65;2.70;;;;;;;;;;4956625;29;20027;-88
2021/09/06 01:57:44;;;;;;;5.60;3.40;;;;;;;;;;4959381;29;20426;-85
2021/09/06 02:00:13;;;;;;;4.95;2.95;;;;;;;;;;4973932;28;20110;-87
2021/09/06 02:02:38;;;;;;;5.40;3.00;;;;;;;;;;4939220;29;20067;-88
2021/09/06 02:05:04;;;;;;;5.90;3.05;;;;;;;;;;4954055;29;20043;-90
2021/09/06 02:07:29;;;;;;;4.93;3.50;;;;;;;;;;4953208;29;20139;-87
2021/09/06 02:10:04;;;;;;;6.35;3.30;;;;;;;;;;4983414;28;20054;-88
2021/09/06 02:12:30;;;;;;;5.35;3.58;;;;;;;;;;4965161;28;20031;-89
2021/09/06 02:14:59;;;;;;;5.70;3.50;;;;;;;;;;4955375;28;20034;-89
2021/09/06 02:17:28;;;;;;;5.18;3.00;;;;;;;;;;4983390;28;20117;-88
2021/09/06 02:19:54;;;;;;;6.95;3.05;;;;;;;;;;4969355;28;20055;-88
2021/09/06 02:22:22;;;;;;;3.90;2.75;;;;;;;;;;4966960;28;20038;-85
2021/09/06 02:24:47;;;;;;;3.45;2.55;;;;;;;;;;4950471;28;20075;-87
2021/09/06 02:27:13;;;;;;;4.00;2.47;;;;;;;;;;4968701;28;20530;-87
2021/09/06 02:29:48;;;;;;;3.97;2.63;;;;;;;;;;4938292;28;20165;-87
2021/09/06 02:32:14;;;;;;;3.38;2.20;;;;;;;;;;4958280;28;20053;-88
2021/09/06 02:34:39;;;;;;;4.78;2.60;;;;;;;;;;4971263;28;20086;-90
2021/09/06 02:37:07;;;;;;;4.28;2.38;;;;;;;;;;4954670;29;20046;-88
2021/09/06 02:39:33;;;;;;;4.15;2.47;;;;;;;;;;4970342;28;20028;-87
2021/09/06 02:41:59;;;;;;;2.92;2.35;;;;;;;;;;4964828;28;20055;-88
2021/09/06 02:44:34;;;;;;;3.78;2.13;;;;;;;;;;4985906;28;20031;-86
2021/09/06 02:46:59;;;;;;;2.50;1.70;;;;;;;;;;4979106;28;20027;-87
2021/09/06 02:49:25;;;;;;;2.55;1.88;;;;;;;;;;4976623;28;20023;-86
2021/09/06 02:51:53;;;;;;;1.85;1.60;;;;;;;;;;4973969;28;20481;-88
2021/09/06 02:54:19;;;;;;;2.08;1.70;;;;;;;;;;4952000;29;20038;-90
2021/09/06 02:56:45;;;;;;;1.90;1.70;;;;;;;;;;4984564;28;20433;-86
2021/09/06 02:59:22;;;;;;;1.88;1.60;;;;;;;;;;4953212;28;20019;-87
2021/09/06 03:01:48;;;;;;;2.53;2.08;;;;;;;;;;4980824;28;20598;-90
2021/09/06 03:04:22;;;;;;;2.25;2.05;;;;;;;;;;4936294;29;20035;-89
2021/09/06 03:06:48;;;;;;;2.10;1.70;;;;;;;;;;4950182;29;20083;-87
2021/09/06 03:09:14;;;;;;;2.45;1.98;;;;;;;;;;4967954;28;20066;-89
2021/09/06 03:11:42;;;;;;;4.43;2.30;;;;;;;;;;4969565;28;20035;-91
2021/09/06 03:14:07;;;;;;;2.65;2.17;;;;;;;;;;4984361;28;20083;-89
2021/09/06 03:16:34;;;;;;;3.70;2.08;;;;;;;;;;4971242;28;20142;-86
2021/09/06 03:19:07;;;;;;;3.58;2.38;;;;;;;;;;4955385;29;20035;-88
2021/09/06 03:21:33;;;;;;;3.30;2.50;;;;;;;;;;4974266;28;20381;-88
2021/09/06 03:23:58;;;;;;;3.00;2.13;;;;;;;;;;4941467;29;20030;-87
2021/09/06 03:26:31;;;;;;;5.45;2.15;;;;;;;;;;4984074;28;20047;-87
2021/09/06 03:28:57;;;;;;;2.97;1.73;;;;;;;;;;4954070;29;20047;-89
2021/09/06 03:31:22;;;;;;;1.85;1.40;;;;;;;;;;4957386;28;20024;-87
2021/09/06 03:33:51;;;;;;;1.65;1.50;;;;;;;;;;4938772;29;20050;-90
2021/09/06 03:36:18;;;;;;;2.92;2.00;;;;;;;;;;4961969;28;20054;-88
2021/09/06 03:38:43;;;;;;;4.15;1.77;;;;;;;;;;4947871;28;20041;-86
2021/09/06 03:41:16;;;;;;;3.17;1.58;;;;;;;;;;4960009;28;20019;-87
2021/09/06 03:43:42;;;;;;;2.95;2.20;;;;;;;;;;4962140;29;20133;-88
2021/09/06 03:46:07;;;;;;;2.38;1.80;;;;;;;;;;4960198;29;20487;-87
2021/09/06 03:48:40;;;;;;;2.20;1.85;;;;;;;;;;4944665;29;20458;-86
2021/09/06 03:51:06;;;;;;;2.85;2.00;;;;;;;;;;4946099;28;20043;-86
2021/09/06 03:53:32;;;;;;;2.78;1.92;;;;;;;;;;4957361;28;20023;-88
2021/09/06 03:56:01;;;;;;;2.05;1.25;;;;;;;;;;4974289;28;20031;-87
2021/09/06 03:58:27;;;;;;;1.75;1.50;;;;;;;;;;4973531;28;20031;-89
2021/09/06 04:00:53;;;;;;;1.70;1.33;;;;;;;;;;4984289;28;20106;-88
2021/09/06 04:03:25;;;;;;;1.70;1.35;;;;;;;;;;4968688;28;20125;-87
2021/09/06 04:05:51;;;;;;;2.30;1.55;;;;;;;;;;4972868;28;20373;-89
2021/09/06 04:08:16;;;;;;;1.40;1.27;;;;;;;;;;4969995;28;20027;-87
2021/09/06 04:10:50;;;;;;;1.10;1.00;;;;;;;;;;4968804;28;20050;-88
2021/09/06 04:13:16;;;;;;;1.50;1.27;;;;;;;;;;4966188;28;20059;-86
2021/09/06 04:15:48;;;;;;;1.30;1.20;;;;;;;;;;4954023;29;20034;-89
2021/09/06 04:18:17;;;;;;;1.40;1.30;;;;;;;;;;4971804;28;20039;-88
2021/09/06 04:20:43;;;;;;;1.70;1.52;;;;;;;;;;4984783;28;20398;-86
2021/09/06 04:23:10;;;;;;;4.68;2.03;;;;;;;;;;4955335;28;20028;-87
2021/09/06 04:25:36;;;;;;;2.20;2.00;;;;;;;;;;4967480;28;20051;-88
2021/09/06 04:28:01;;;;;;;2.80;2.42;;;;;;;;;;4940512;29;20046;-87
2021/09/06 04:30:27;;;;;;;3.75;1.88;;;;;;;;;;4970508;28;20041;-87
2021/09/06 04:32:55;;;;;;;6.10;2.72;;;;;;;;;;4993605;28;20050;-89
2021/09/06 04:35:21;;;;;;;3.90;2.65;;;;;;;;;;4988441;28;20185;-89
2021/09/06 04:37:47;;;;;;;3.22;2.70;;;;;;;;;;4970769;28;20079;-88
2021/09/06 04:40:21;;;;;;;4.43;3.13;;;;;;;;;;4936534;29;20113;-89
2021/09/06 04:43:07;;;;;;;3.63;3.25;;;;;;;;;;4950400;28;20039;-88
2021/09/06 04:45:33;;;;;;;4.03;3.63;;;;;;;;;;4952412;28;20061;-87
2021/09/06 04:48:01;;;;;;;4.18;3.78;;;;;;;;;;4983700;28;20027;-86
2021/09/06 04:50:27;;;;;;;5.43;3.50;;;;;;;;;;4983813;28;20045;-90
2021/09/06 04:52:55;;;;;;;8.30;4.22;;;;;;;;;;4947311;28;20036;-89
2021/09/06 04:55:28;;;;;;;4.93;3.47;;;;;;;;;;4951668;28;20046;-89
2021/09/06 04:57:53;;;;;;;4.75;3.92;;;;;;;;;;4982154;28;20172;-88
2021/09/06 05:00:19;;;;;;;4.43;4.03;;;;;;;;;;4982625;28;20031;-88
2021/09/06 05:02:47;;;;;;;5.90;4.45;;;;;;;;;;4969313;28;20059;-88
2021/09/06 05:05:13;;;;;;;4.40;3.88;;;;;;;;;;4969171;28;20051;-87
2021/09/06 05:07:38;;;;;;;5.18;4.20;;;;;;;;;;4951196;28;20043;-89
2021/09/06 05:10:04;;;;;;;7.70;4.45;;;;;;;;;;4982492;28;20082;-87
2021/09/06 05:12:32;;;;;;;5.43;4.25;;;;;;;;;;4950729;29;20111;-90
2021/09/06 05:14:58;;;;;;;5.20;4.28;;;;;;;;;;4968712;28;20047;-88
2021/09/06 05:17:23;;;;;;;6.70;4.47;;;;;;;;;;4971374;28;20035;-86
2021/09/06 05:19:58;;;;;;;6.20;4.60;;;;;;;;;;4949382;29;20039;-87
2021/09/06 05:22:24;;;;;;;4.60;4.20;;;;;;;;;;4958669;28;20023;-89
2021/09/06 05:24:53;;;;;;;4.40;3.70;;;;;;;;;;4955403;28;20053;-87
2021/09/06 05:27:23;;;;;;;7.95;4.60;;;;;;;;;;4954536;28;20031;-88
2021/09/06 05:29:48;;;;;;;6.68;4.75;;;;;;;;;;4936488;29;20094;-89
2021/09/06 05:32:22;;;;;;;6.60;4.40;;;;;;;;;;4964983;28;20076;-85
2021/09/06 05:34:50;;;;;;;5.45;3.92;;;;;;;;;;4954743;28;20108;-85
2021/09/06 05:37:15;;;;;;;6.38;3.92;;;;;;;;;;4963227;29;20220;-87
2021/09/06 05:39:42;;;;;;;8.57;3.60;;;;;;;;;;4974646;28;20023;-89
2021/09/06 05:42:08;;;;;;;4.35;3.20;;;;;;;;;;4973129;28;20105;-88
2021/09/06 05:44:33;;;;;;;3.80;3.00;;;;;;;;;;4982452;28;20122;-87
2021/09/06 05:47:00;;;;;;;8.13;3.40;;;;;;;;;;4934721;28;20449;-90
2021/09/06 05:49:34;;;;;;;4.05;3.35;;;;;;;;;;4969152;28;20042;-90
2021/09/06 05:52:09;;;;;;;6.65;2.95;;;;;;;;;;4936447;29;20038;-88
2021/09/06 05:54:34;;;;;;;4.95;3.17;;;;;;;;;;4952028;28;20050;-89
2021/09/06 05:57:00;;;;;;;3.33;2.65;;;;;;;;;;4950282;28;20031;-88
2021/09/06 05:59:33;;;;;;;6.40;3.35;;;;;;;;;;4971596;28;20031;-89
2021/09/06 06:01:58;;;;;;;4.32;3.17;;;;;;;;;;4954638;29;20058;-86
2021/09/06 06:04:24;;;;;;;3.85;2.75;;;;;;;;;;4953635;28;20061;-88
2021/09/06 06:06:54;;;;;;;5.05;2.85;;;;;;;;;;4971426;28;20134;-90
2021/09/06 06:09:37;;;;;;;4.95;3.40;;;;;;;;;;4956287;28;20801;-88
2021/09/06 06:12:03;;;;;;;7.15;3.20;;;;;;;;;;4957795;28;20118;-90
2021/09/06 06:14:28;;;;;;;3.63;2.70;;;;;;;;;;4989530;28;20086;-88
2021/09/06 06:16:57;;;;;;;3.28;2.35;;;;;;;;;;4964372;28;20106;-89
2021/09/06 06:19:22;;;;;;;3.72;2.78;;;;;;;;;;4959735;28;20062;-90
2021/09/06 06:21:47;;;;;;;7.50;3.08;;;;;;;;;;4925747;28;20058;-87
2021/09/06 06:24:21;;;;;;;4.85;2.97;;;;;;;;;;4990711;28;20134;-87
2021/09/06 06:26:47;;;;;;;3.83;2.53;;;;;;;;;;4958106;28;20100;-88
2021/09/06 06:29:12;;;;;;;4.55;2.50;;;;;;;;;;4943691;28;20080;-89
2021/09/06 06:31:44;;;;;;;4.30;2.75;;;;;;;;;;4974201;28;20031;-90
2021/09/06 06:34:09;;;;;;;2.35;1.95;;;;;;;;;;4974050;28;20054;-89
2021/09/06 06:36:46;;;;;;;5.32;2.60;;;;;;;;;;4981450;28;20158;-88
2021/09/06 06:39:12;;;;;;;9.48;3.03;;;;;;;;;;4961341;28;20035;-88
2021/09/06 06:41:47;;;;;;;13.60;3.10;;;;;;;;;;4965215;28;20127;-88
2021/09/06 06:44:14;;;;;;;5.25;3.40;;;;;;;;;;4970998;28;20039;-90
2021/09/06 06:46:40;;;;;;;4.38;3.10;;;;;;;;;;4953796;28;20341;-90
2021/09/06 06:49:13;;;;;;;5.03;3.17;;;;;;;;;;4953305;29;20027;-87
2021/09/06 06:51:39;;;;;;;5.18;3.38;;;;;;;;;;4952601;28;20049;-91
2021/09/06 06:54:05;;;;;;;4.28;2.95;;;;;;;;;;4972153;28;20027;-87
2021/09/06 06:56:33;;;;;;;9.52;3.05;;;;;;;;;;4984557;28;20023;-90
2021/09/06 06:58:59;;;;;;;8.52;3.45;;;;;;;;;;4971667;28;20019;-90
2021/09/06 07:01:25;;;;;;;6.55;2.90;;;;;;;;;;4958408;28;20031;-87
2021/09/06 07:03:51;;;;;;;9.07;3.95;;;;;;;;;;4955512;29;20023;-90
2021/09/06 07:06:26;;;;;;;6.40;4.05;;;;;;;;;;4942370;29;20075;-91
2021/09/06 07:08:51;;;;;;;7.43;4.35;;;;;;;;;;4986366;28;20450;-88
2021/09/06 07:11:42;;;;;;;7.20;4.68;;;;;;;;;;4944645;28;20057;-88
2021/09/06 07:14:09;;;;;;;10.32;5.10;;;;;;;;;;4993915;28;20038;-88
2021/09/06 07:16:42;;;;;;;9.27;5.22;;;;;;;;;;4988953;28;20054;-89
2021/09/06 07:19:08;;;;;;;7.25;4.25;;;;;;;;;;4976064;28;20046;-88
2021/09/06 07:21:34;;;;;;;6.97;4.45;;;;;;;;;;4970288;28;20033;-89
2021/09/06 07:23:59;;;;;;;12.65;4.85;;;;;;;;;;4957603;28;20038;-90
2021/09/06 07:26:27;;;;;;;7.97;5.03;;;;;;;;;;4958736;29;20088;-90
2021/09/06 07:28:53;;;;;;;13.60;5.15;;;;;;;;;;4983856;28;20607;-87
2021/09/06 07:31:18;;;;;;;14.82;5.63;;;;;;;;;;4978069;28;20213;-86
2021/09/06 07:33:49;;;;;;;14.18;5.35;;;;;;;;;;4955340;29;20480;-90
2021/09/06 07:36:14;;;;;;;15.35;5.35;;;;;;;;;;4986360;28;20075;-87
2021/09/06 07:38:40;;;;;;;9.23;5.85;;;;;;;;;;4972424;28;20023;-87
2021/09/06 07:41:05;;;;;;;14.40;5.90;;;;;;;;;;4959086;29;20473;-89
2021/09/06 07:43:37;;;;;;;13.23;5.75;;;;;;;;;;4960034;29;20028;-89
2021/09/06 07:46:02;;;;;;;13.45;5.90;;;;;;;;;;4963735;29;20023;-88
2021/09/06 07:48:28;;;;;;;15.75;5.85;;;;;;;;;;4963904;28;20086;-89
2021/09/06 07:50:54;;;;;;;15.07;5.97;;;;;;;;;;4943862;29;20031;-89
2021/09/06 07:53:28;;;;;;;13.73;5.70;;;;;;;;;;4942321;29;20027;-88
2021/09/06 07:55:58;;;;;;;11.27;5.72;;;;;;;;;;4966196;28;20030;-87
2021/09/06 07:58:25;;;;;;;10.32;5.35;;;;;;;;;;4969397;28;20031;-84
2021/09/06 08:01:00;;;;;;;12.65;5.57;;;;;;;;;;4960318;29;20055;-86
2021/09/06 08:03:25;;;;;;;12.23;5.90;;;;;;;;;;4960679;28;20031;-89
2021/09/06 08:05:51;;;;;;;9.32;5.85;;;;;;;;;;4936759;28;20066;-88
2021/09/06 08:08:17;;;;;;;8.55;5.05;;;;;;;;;;4983418;28;20035;-90
2021/09/06 08:10:51;;;;;;;10.63;5.57;;;;;;;;;;4970215;28;20051;-89
2021/09/06 08:13:17;;;;;;;10.45;5.70;;;;;;;;;;4954543;28;20365;-91
2021/09/06 08:15:50;;;;;;;8.93;5.20;;;;;;;;;;4984382;28;20456;-88
2021/09/06 08:18:16;;;;;;;12.40;5.07;;;;;;;;;;4951801;28;20557;-89
2021/09/06 08:20:42;;;;;;;8.40;4.78;;;;;;;;;;4949133;28;20050;-92
2021/09/06 08:23:13;;;;;;;9.73;4.97;;;;;;;;;;4955320;28;20070;-90
2021/09/06 08:25:39;;;;;;;9.80;5.30;;;;;;;;;;4952908;28;20038;-88
2021/09/06 08:28:05;;;;;;;10.05;5.30;;;;;;;;;;4954122;28;20035;-87
2021/09/06 08:30:40;;;;;;;13.02;4.88;;;;;;;;;;4965362;28;20070;-88
2021/09/06 08:33:05;;;;;;;15.18;5.30;;;;;;;;;;4969120;28;20023;-90
2021/09/06 08:35:34;;;;;;;12.55;5.60;;;;;;;;;;4952418;28;20103;-90
2021/09/06 08:37:59;;;;;;;13.20;5.25;;;;;;;;;;4951619;28;20027;-89
2021/09/06 08:40:25;;;;;;;9.60;5.78;;;;;;;;;;4950517;29;20039;-92
2021/09/06 08:42:51;;;;;;;12.18;5.40;;;;;;;;;;4966967;28;20357;-89
2021/09/06 08:45:19;;;;;;;10.77;6.00;;;;;;;;;;4951500;28;20058;-90
2021/09/06 08:47:51;;;;;;;12.38;5.80;;;;;;;;;;4979125;28;20015;-91
2021/09/06 08:50:24;;;;;;;14.57;6.07;;;;;;;;;;4949868;28;20043;-89
2021/09/06 08:52:50;;;;;;;10.25;5.50;;;;;;;;;;4967258;28;20453;-91
2021/09/06 08:55:15;;;;;;;13.35;6.20;;;;;;;;;;4953376;28;20023;-85
2021/09/06 08:57:43;;;;;;;17.70;5.43;;;;;;;;;;4953939;29;20445;-88
2021/09/06 09:00:10;;;;;;;12.15;5.47;;;;;;;;;;4962577;29;20031;-87
2021/09/06 09:02:36;;;;;;;13.98;6.00;;;;;;;;;;4955395;28;20078;-91
2021/09/06 09:05:08;;;;;;;14.55;5.43;;;;;;;;;;4965201;28;20453;-92
2021/09/06 09:07:34;;;;;;;11.48;6.07;;;;;;;;;;4953327;28;20146;-88
2021/09/06 09:10:00;;;;;;;8.90;5.25;;;;;;;;;;4964531;28;20114;-92
2021/09/06 09:12:31;;;;;;;13.13;5.15;;;;;;;;;;4948598;28;20541;-90
2021/09/06 09:15:19;;;;;;;13.15;5.75;;;;;;;;;;4974560;28;20027;-89
2021/09/06 09:17:53;;;;;;;10.32;5.45;;;;;;;;;;4960818;28;20042;-92
2021/09/06 09:20:19;;;;;;;14.30;5.75;;;;;;;;;;4943433;28;20034;-87
2021/09/06 09:22:44;;;;;;;9.55;5.22;;;;;;;;;;4941507;28;20031;-87
2021/09/06 09:25:18;;;;;;;10.02;5.32;;;;;;;;;;4959163;28;20058;-92
2021/09/06 09:27:44;;;;;;;8.45;5.03;;;;;;;;;;4942228;28;20023;-92
2021/09/06 09:30:23;;;;;;;8.27;5.35;;;;;;;;;;4959740;28;20447;-89
2021/09/06 09:33:03;;;;;;;8.80;5.10;;;;;;;;;;4964216;28;20038;-89
2021/09/06 09:35:30;;;;;;;11.65;5.18;;;;;;;;;;4947928;28;20049;-88
2021/09/06 09:38:02;;;;;;;8.50;4.88;;;;;;;;;;4946511;28;20030;-89
2021/09/06 09:40:31;;;;;;;7.90;3.83;;;;;;;;;;4941927;28;20058;-88
2021/09/06 09:43:05;;;;;;;6.43;3.95;;;;;;;;;;4962117;28;20066;-91
2021/09/06 09:45:31;;;;;;;6.18;3.83;;;;;;;;;;4961643;28;20473;-92
2021/09/06 09:48:08;;;;;;;8.18;4.35;;;;;;;;;;4954797;29;20055;-91
2021/09/06 09:50:35;;;;;;;9.02;4.63;;;;;;;;;;4988987;28;20027;-91
2021/09/06 09:53:09;;;;;;;10.30;3.85;;;;;;;;;;4987421;28;20468;-90
2021/09/06 09:55:53;;;;;;;7.82;4.28;;;;;;;;;;4955770;28;20041;-89
2021/09/06 09:58:19;;;;;;;5.22;3.90;;;;;;;;;;4989680;28;20070;-90
2021/09/06 10:00:50;;;;;;;10.15;3.38;;;;;;;;;;4977848;28;20046;-88
2021/09/06 10:03:16;;;;;;;8.02;3.97;;;;;;;;;;4973355;28;20601;-89
2021/09/06 10:05:42;;;;;;;7.72;3.63;;;;;;;;;;4957546;29;20047;-89
2021/09/06 10:08:15;;;;;;;5.40;3.55;;;;;;;;;;4971073;28;20043;-89
2021/09/06 10:10:41;;;;;;;;;;;;;;;;;;4952908;28;20162;-91
2021/09/06 10:13:07;;;;;;;6.30;4.03;;;;;;;;;;4954002;28;19910;-88
2021/09/06 10:15:36;;;;;;;5.18;3.45;;;;;;;;;;4966883;28;20490;-88
2021/09/06 10:18:19;;;;;;;7.47;3.72;;;;;;;;;;4959693;29;20011;-88
2021/09/06 10:20:45;;;;;;;6.45;3.47;;;;;;;;;;4974584;28;20067;-90
2021/09/06 10:23:12;;;;;;;6.60;3.55;;;;;;;;;;4956395;29;20118;-89
2021/09/06 10:25:41;;;;;;;5.28;3.38;;;;;;;;;;4953793;29;20024;-87
2021/09/06 10:28:07;;;;;;;4.68;3.28;;;;;;;;;;4949255;28;20038;-89
2021/09/06 10:30:50;;;;;;;4.85;3.55;;;;;;;;;;4970320;28;20642;-89
2021/09/06 10:33:22;;;;;;;6.13;2.88;;;;;;;;;;4954113;28;20433;-89
2021/09/06 10:35:48;;;;;;;4.82;3.08;;;;;;;;;;4955945;28;20050;-89
2021/09/06 10:38:16;;;;;;;4.68;3.10;;;;;;;;;;4955993;28;20106;-89
2021/09/06 10:40:48;;;;;;;6.00;2.67;;;;;;;;;;4988579;28;20038;-89
2021/09/06 10:43:15;;;;;;;4.55;3.67;;;;;;;;;;4967382;28;20118;-92
2021/09/06 10:45:41;;;;;;;3.80;2.83;;;;;;;;;;4952610;28;20491;-90
2021/09/06 10:48:14;;;;;;;;;;;;;;;;;;4971247;28;20027;-90
2021/09/06 10:50:43;;;;;;;7.57;3.85;;;;;;;;;;4986092;28;19910;-88
2021/09/06 10:53:12;;;;;;;5.57;3.80;;;;;;;;;;4955280;28;20101;-89
2021/09/06 10:55:38;;;;;;;9.60;4.25;;;;;;;;;;4956390;29;20043;-91
2021/09/06 10:58:10;;;;;;;6.05;3.50;;;;;;;;;;4958824;28;20078;-88
2021/09/06 11:00:37;;;;;;;6.18;3.42;;;;;;;;;;4954647;28;20031;-88
2021/09/06 11:03:04;;;;;;;8.02;3.30;;;;;;;;;;4976476;28;20033;-90
2021/09/06 11:05:39;;;;;;;5.47;3.88;;;;;;;;;;4950752;29;20050;-87
2021/09/06 11:08:25;;;;;;;8.02;4.22;;;;;;;;;;4961927;28;20062;-86
2021/09/06 11:10:52;;;;;;;12.52;5.13;;;;;;;;;;4963067;29;20019;-88
2021/09/06 11:13:18;;;;;;;8.45;4.28;;;;;;;;;;4965238;28;20026;-89
2021/09/06 11:15:45;;;;;;;6.30;4.18;;;;;;;;;;4966704;28;20027;-89
2021/09/06 11:18:10;;;;;;;7.15;4.10;;;;;;;;;;4970751;29;20027;-87
2021/09/06 11:20:46;;;;;;;10.05;3.72;;;;;;;;;;4973703;28;20079;-85
2021/09/06 11:23:12;;;;;;;6.32;4.28;;;;;;;;;;4976323;28;20027;-86
2021/09/06 11:25:42;;;;;;;5.60;3.92;;;;;;;;;;4990255;28;20011;-88
2021/09/06 11:28:14;;;;;;;5.32;3.47;;;;;;;;;;4973691;28;20038;-90
2021/09/06 11:30:50;;;;;;;8.55;3.80;;;;;;;;;;4940789;29;20105;-88
2021/09/06 11:33:15;;;;;;;5.60;3.33;;;;;;;;;;4995535;28;20037;-89
2021/09/06 11:35:49;;;;;;;4.47;3.10;;;;;;;;;;4944917;29;20020;-89
2021/09/06 11:38:16;;;;;;;4.65;3.35;;;;;;;;;;4959719;29;20050;-87
2021/09/06 11:40:42;;;;;;;5.13;2.97;;;;;;;;;;4960911;29;20026;-89
2021/09/06 11:43:13;;;;;;;6.20;3.35;;;;;;;;;;4956256;28;20126;-88
2021/09/06 11:45:39;;;;;;;6.78;3.88;;;;;;;;;;4958093;28;20039;-89
2021/09/06 11:48:05;;;;;;;4.68;3.08;;;;;;;;;;4972166;28;20509;-87
2021/09/06 11:50:35;;;;;;;7.50;3.60;;;;;;;;;;4958340;28;20038;-89
2021/09/06 11:53:19;;;;;;;5.20;3.45;;;;;;;;;;4990265;28;20061;-90
2021/09/06 11:55:50;;;;;;;6.20;3.05;;;;;;;;;;4957918;28;20027;-88
2021/09/06 11:58:22;;;;;;;10.80;3.85;;;;;;;;;;4997161;28;20055;-87
2021/09/06 12:00:47;;;;;;;7.68;2.90;;;;;;;;;;4977496;28;20039;-87
2021/09/06 12:03:22;;;;;;;4.90;3.10;;;;;;;;;;4993817;28;20038;-86
2021/09/06 12:05:50;;;;;;;2.95;2.65;;;;;;;;;;4992994;28;20366;-87
2021/09/06 12:08:23;;;;;;;4.00;2.83;;;;;;;;;;4984866;28;20057;-90
2021/09/06 12:10:49;;;;;;;5.80;2.83;;;;;;;;;;4978483;28;20027;-89
2021/09/06 12:13:17;;;;;;;5.38;3.22;;;;;;;;;;4970085;29;20107;-87
2021/09/06 12:15:54;;;;;;;5.85;3.20;;;;;;;;;;4957953;28;20028;-91
2021/09/06 12:18:19;;;;;;;5.82;3.03;;;;;;;;;;4952240;29;20035;-90
2021/09/06 12:20:48;;;;;;;7.95;3.33;;;;;;;;;;4937976;29;20111;-89
2021/09/06 12:23:30;;;;;;;5.32;2.75;;;;;;;;;;4969312;28;20035;-90
2021/09/06 12:25:55;;;;;;;5.93;2.80;;;;;;;;;;4953493;28;20078;-89
2021/09/06 12:28:21;;;;;;;5.68;2.97;;;;;;;;;;4964163;28;20039;-89
2021/09/06 12:30:55;;;;;;;6.13;2.92;;;;;;;;;;4938324;29;20059;-88
2021/09/06 12:33:20;;;;;;;3.92;2.67;;;;;;;;;;4955969;29;20031;-90
2021/09/06 12:35:46;;;;;;;4.70;3.13;;;;;;;;;;4956105;28;20055;-88
2021/09/06 12:38:37;;;;;;;4.40;2.78;;;;;;;;;;4986839;28;20038;-88
2021/09/06 12:41:02;;;;;;;4.65;3.05;;;;;;;;;;4989319;28;20034;-88
2021/09/06 12:43:28;;;;;;;5.18;3.30;;;;;;;;;;4964592;29;20024;-88
2021/09/06 12:46:01;;;;;;;4.50;2.58;;;;;;;;;;4961992;29;20030;-91
2021/09/06 12:48:26;;;;;;;;;;;;;;;;;;4969581;28;20138;-87
2021/09/06 12:50:53;;;;;;;5.57;3.00;;;;;;;;;;4942361;29;19918;-89
2021/09/06 12:53:28;;;;;;;4.75;3.25;;;;;;;;;;4986176;28;20028;-90
2021/09/06 12:56:04;;;;;;;4.82;2.80;;;;;;;;;;4971180;28;20050;-90
2021/09/06 12:58:31;;;;;;;3.03;2.50;;;;;;;;;;4952614;29;20019;-88
2021/09/06 13:00:56;;;;;;;4.13;2.67;;;;;;;;;;4956001;28;20038;-90
2021/09/06 13:03:30;;;;;;;3.25;2.22;;;;;;;;;;4953129;28;20051;-88
2021/09/06 13:05:56;;;;;;;6.03;2.70;;;;;;;;;;4953892;29;20039;-88
2021/09/06 13:08:24;;;;;;;5.57;2.80;;;;;;;;;;4936065;29;20031;-88
2021/09/06 13:10:51;;;;;;;6.53;2.55;;;;;;;;;;4953105;28;20034;-89
2021/09/06 13:13:19;;;;;;;3.40;2.70;;;;;;;;;;4975803;28;20015;-89
2021/09/06 13:15:49;;;;;;;5.57;2.85;;;;;;;;;;4959619;29;20023;-89
2021/09/06 13:18:15;;;;;;;5.82;2.90;;;;;;;;;;4979249;28;20082;-86
2021/09/06 13:20:51;;;;;;;6.72;3.13;;;;;;;;;;4986546;28;20098;-90
2021/09/06 13:23:16;;;;;;;5.47;2.97;;;;;;;;;;4943773;29;20034;-91
2021/09/06 13:25:43;;;;;;;5.50;2.83;;;;;;;;;;4969140;28;20031;-90
2021/09/06 13:28:11;;;;;;;7.57;2.88;;;;;;;;;;4969155;28;22009;-89
2021/09/06 13:30:39;;;;;;;7.47;2.78;;;;;;;;;;4969919;28;20035;-88
2021/09/06 13:33:04;;;;;;;6.30;2.58;;;;;;;;;;4972307;28;20023;-90
2021/09/06 13:35:30;;;;;;;6.05;2.25;;;;;;;;;;4958121;29;20034;-89
2021/09/06 13:37:58;;;;;;;5.43;3.00;;;;;;;;;;4950315;28;20465;-91
2021/09/06 13:40:23;;;;;;;3.53;2.65;;;;;;;;;;4967038;28;20464;-89
2021/09/06 13:42:48;;;;;;;4.25;3.10;;;;;;;;;;4949935;29;20015;-90
2021/09/06 13:45:14;;;;;;;4.80;2.60;;;;;;;;;;4952132;28;20053;-88
2021/09/06 13:47:42;;;;;;;3.53;2.38;;;;;;;;;;4954576;28;20123;-89
2021/09/06 13:50:08;;;;;;;4.05;2.40;;;;;;;;;;4980203;28;20396;-90
2021/09/06 13:52:33;;;;;;;5.15;3.17;;;;;;;;;;4968576;28;20019;-88
2021/09/06 13:54:59;;;;;;;4.38;2.55;;;;;;;;;;4969588;28;20042;-89
2021/09/06 13:57:33;;;;;;;8.85;2.63;;;;;;;;;;4971101;28;20020;-87
2021/09/06 13:59:59;;;;;;;6.53;3.30;;;;;;;;;;4981259;28;20190;-91
2021/09/06 14:02:27;;;;;;;5.15;2.58;;;;;;;;;;4938972;29;20449;-88
2021/09/06 14:04:52;;;;;;;6.75;3.30;;;;;;;;;;4959644;28;20259;-87
2021/09/06 14:07:18;;;;;;;5.78;3.35;;;;;;;;;;4945415;28;20158;-88
2021/09/06 14:09:44;;;;;;;6.20;3.00;;;;;;;;;;4961377;29;20036;-87
2021/09/06 14:12:11;;;;;;;5.88;2.72;;;;;;;;;;4958332;29;20102;-88
2021/09/06 14:14:38;;;;;;;3.70;2.60;;;;;;;;;;4956761;28;20019;-90
2021/09/06 14:17:03;;;;;;;7.80;2.67;;;;;;;;;;4956303;28;20027;-90
2021/09/06 14:19:34;;;;;;;4.72;2.92;;;;;;;;;;4949395;29;20034;-87
2021/09/06 14:22:01;;;;;;;5.32;3.17;;;;;;;;;;4974108;28;20094;-87
2021/09/06 14:24:26;;;;;;;6.40;2.85;;;;;;;;;;4947699;29;20043;-88
2021/09/06 14:26:52;;;;;;;5.65;2.85;;;;;;;;;;4995963;28;20112;-87
2021/09/06 14:29:26;;;;;;;5.63;3.05;;;;;;;;;;4948884;29;20027;-88
2021/09/06 14:31:51;;;;;;;4.22;2.92;;;;;;;;;;4952864;29;20067;-88
2021/09/06 14:34:20;;;;;;;5.25;2.97;;;;;;;;;;4986813;28;20442;-91
2021/09/06 14:36:48;;;;;;;4.97;2.70;;;;;;;;;;4943303;29;20032;-90
2021/09/06 14:39:13;;;;;;;3.88;2.83;;;;;;;;;;4943440;29;20139;-91
2021/09/06 14:41:48;;;;;;;5.20;2.85;;;;;;;;;;4987559;28;20071;-91
2021/09/06 14:44:13;;;;;;;8.70;3.20;;;;;;;;;;4974108;28;20039;-91
2021/09/06 14:46:39;;;;;;;5.40;3.28;;;;;;;;;;4959724;29;20041;-92
2021/09/06 14:49:07;;;;;;;6.45;3.38;;;;;;;;;;4958756;28;20339;-88
2021/09/06 14:51:32;;;;;;;10.40;3.42;;;;;;;;;;4965964;28;20109;-90